Time;durP1;ratioP1;P1;durP2;ratioP2;P2;SDS_P1;SDS_P2;PMS_P1;PMS_P2;Temp;Humidity;BMP_temperature;BMP_pressure;BME280_temperature;BME280_humidity;BME280_pressure;Samples;Min_cycle;Max_cycle;Signal;HPM_P1;HPM_P2
2022/04/17 00:00:36;;;;;;;4.35;3.22;;;5.30;1.00;;;;;;4978399;28;20290;-81
2022/04/17 00:03:17;;;;;;;4.18;3.08;;;5.30;1.00;;;;;;4961322;28;20295;-77
2022/04/17 00:05:47;;;;;;;4.25;2.90;;;5.30;1.00;;;;;;4974760;28;20246;-80
2022/04/17 00:08:17;;;;;;;4.95;3.20;;;5.30;1.00;;;;;;4957040;28;20246;-81
2022/04/17 00:10:48;;;;;;;4.63;2.97;;;5.30;1.00;;;;;;4993110;28;20254;-77
2022/04/17 00:13:16;;;;;;;5.10;3.42;;;5.30;1.00;;;;;;4989725;28;20278;-77
2022/04/17 00:15:46;;;;;;;4.45;3.03;;;5.30;1.00;;;;;;4983800;28;20223;-78
2022/04/17 00:18:14;;;;;;;4.50;2.92;;;5.30;1.00;;;;;;4985628;28;20228;-80
2022/04/17 00:20:47;;;;;;;4.68;3.38;;;5.30;1.00;;;;;;4965551;28;20229;-80
2022/04/17 00:23:14;;;;;;;5.05;3.40;;;5.40;1.00;;;;;;4968633;28;20233;-79
2022/04/17 00:25:51;;;;;;;4.90;2.88;;;5.30;1.00;;;;;;4954772;28;20236;-76
2022/04/17 00:28:18;;;;;;;6.43;3.83;;;5.30;1.00;;;;;;4948098;28;20290;-78
2022/04/17 00:30:48;;;;;;;4.97;3.30;;;5.30;1.00;;;;;;4954510;28;20232;-80
2022/04/17 00:33:16;;;;;;;4.90;3.00;;;5.30;1.00;;;;;;4974823;28;20307;-77
2022/04/17 00:35:46;;;;;;;4.13;2.85;;;5.40;1.00;;;;;;4989854;28;20235;-80
2022/04/17 00:38:16;;;;;;;4.57;2.85;;;5.40;1.00;;;;;;4954158;28;20247;-77
2022/04/17 00:40:45;;;;;;;4.05;3.20;;;5.40;1.00;;;;;;4929861;28;20240;-78
2022/04/17 00:43:31;;;;;;;4.05;2.80;;;5.40;1.00;;;;;;4965717;28;20246;-81
2022/04/17 00:46:04;;;;;;;4.03;2.72;;;5.40;1.00;;;;;;4934022;28;20244;-78
2022/04/17 00:48:37;;;;;;;5.05;3.10;;;5.30;1.00;;;;;;4968229;28;20247;-83
2022/04/17 00:51:08;;;;;;;5.22;3.00;;;5.30;1.00;;;;;;4944108;28;20267;-79
2022/04/17 00:53:36;;;;;;;3.38;2.40;;;5.40;1.00;;;;;;4960979;28;20227;-82
2022/04/17 00:56:07;;;;;;;4.55;2.55;;;5.40;1.00;;;;;;4944344;28;20246;-76
2022/04/17 00:58:39;;;;;;;3.42;2.38;;;5.30;1.00;;;;;;4979873;28;20231;-77
2022/04/17 01:01:37;;;;;;;4.40;2.78;;;5.20;1.00;;;;;;4969572;28;20271;-80
2022/04/17 01:04:10;;;;;;;4.35;2.60;;;5.20;1.00;;;;;;4971277;28;20246;-82
2022/04/17 01:06:48;;;;;;;4.32;2.50;;;5.20;1.00;;;;;;4956288;28;20731;-83
2022/04/17 01:09:16;;;;;;;5.35;3.05;;;5.30;1.00;;;;;;4953048;28;20302;-78
2022/04/17 01:11:48;;;;;;;5.15;2.35;;;5.20;1.00;;;;;;4937612;28;20349;-76
2022/04/17 01:14:15;;;;;;;4.90;2.63;;;5.30;1.00;;;;;;4957852;28;20236;-80
2022/04/17 01:16:45;;;;;;;4.80;2.88;;;5.20;1.00;;;;;;4980785;28;20263;-77
2022/04/17 01:19:13;;;;;;;5.00;2.65;;;5.20;1.00;;;;;;4987571;28;20243;-82
2022/04/17 01:21:49;;;;;;;4.95;2.75;;;5.20;1.00;;;;;;4967934;28;20236;-80
2022/04/17 01:27:06;;;;;;;4.65;3.13;;;5.10;1.00;;;;;;4940060;28;20257;-79
2022/04/17 01:29:38;;;;;;;4.22;2.88;;;5.10;1.00;;;;;;4967029;28;20273;-82
2022/04/17 01:32:07;;;;;;;4.63;3.22;;;5.10;1.00;;;;;;4967220;28;20287;-81
2022/04/17 01:34:36;;;;;;;4.35;3.05;;;5.00;1.00;;;;;;4983097;28;20236;-78
2022/04/17 01:37:07;;;;;;;6.60;3.58;;;5.00;1.00;;;;;;4967062;28;20238;-81
2022/04/17 01:39:33;;;;;;;5.65;3.50;;;5.00;1.00;;;;;;4970494;28;20323;-80
2022/04/17 01:42:06;;;;;;;4.28;3.28;;;5.00;1.00;;;;;;4967787;28;21373;-80
2022/04/17 01:44:37;;;;;;;5.28;3.10;;;4.90;1.00;;;;;;4980288;28;20282;-80
2022/04/17 01:47:11;;;;;;;5.65;3.55;;;4.90;1.00;;;;;;4971007;28;20246;-77
2022/04/17 01:49:39;;;;;;;5.93;5.28;;;4.90;1.00;;;;;;4982649;28;20246;-78
2022/04/17 01:52:16;;;;;;;6.53;3.78;;;4.80;1.00;;;;;;4953020;28;20249;-83
2022/04/17 01:54:47;;;;;;;4.60;3.78;;;4.80;1.00;;;;;;4960816;28;20224;-77
2022/04/17 01:57:17;;;;;;;5.55;3.53;;;4.70;1.00;;;;;;4955477;28;20247;-77
2022/04/17 01:59:46;;;;;;;4.70;3.63;;;4.80;1.00;;;;;;4950796;28;20280;-79
2022/04/17 02:02:17;;;;;;;6.10;3.65;;;4.70;1.00;;;;;;4965146;28;20236;-77
2022/04/17 02:04:48;;;;;;;5.38;3.92;;;4.70;1.00;;;;;;4963908;28;20231;-79
2022/04/17 02:07:16;;;;;;;7.28;4.35;;;4.60;1.00;;;;;;4973525;28;20245;-78
2022/04/17 02:09:46;;;;;;;4.80;3.88;;;4.60;1.00;;;;;;4951161;28;20228;-81
2022/04/17 02:12:14;;;;;;;8.50;4.38;;;4.60;1.00;;;;;;4976168;28;20265;-78
2022/04/17 02:14:48;;;;;;;6.47;4.43;;;4.60;1.00;;;;;;4990752;28;20238;-79
2022/04/17 02:17:17;;;;;;;5.15;3.97;;;4.60;1.00;;;;;;4946582;28;20244;-77
2022/04/17 02:19:47;;;;;;;6.72;3.83;;;4.50;1.00;;;;;;4954939;28;20242;-77
2022/04/17 02:22:18;;;;;;;5.47;4.05;;;4.50;1.00;;;;;;4945535;28;20247;-77
2022/04/17 02:24:45;;;;;;;7.20;4.18;;;4.40;1.00;;;;;;4957219;28;20224;-80
2022/04/17 02:27:19;;;;;;;6.90;5.05;;;4.40;1.00;;;;;;4985262;28;20232;-78
2022/04/17 02:29:47;;;;;;;7.00;4.78;;;4.30;1.00;;;;;;4975440;28;20312;-78
2022/04/17 02:32:14;;;;;;;8.02;5.45;;;4.30;1.00;;;;;;4953380;28;20366;-77
2022/04/17 02:34:46;;;;;;;8.05;5.00;;;4.20;1.00;;;;;;4960576;28;20232;-80
2022/04/17 02:37:19;;;;;;;7.18;5.20;;;4.20;1.00;;;;;;4980894;28;20225;-77
2022/04/17 02:39:47;;;;;;;6.47;4.90;;;4.10;1.00;;;;;;4958887;28;20899;-77
2022/04/17 02:42:18;;;;;;;4.95;4.28;;;4.10;1.00;;;;;;4960328;28;20219;-79
2022/04/17 02:44:48;;;;;;;6.45;4.50;;;4.10;1.00;;;;;;4959051;28;20251;-77
2022/04/17 02:50:08;;;;;;;6.07;4.55;;;4.00;1.00;;;;;;4988336;28;20262;-78
2022/04/17 02:52:37;;;;;;;10.43;6.88;;;4.00;1.00;;;;;;4994355;28;20275;-78
2022/04/17 02:55:17;;;;;;;8.95;6.25;;;3.90;1.00;;;;;;4939296;28;20445;-76
2022/04/17 02:57:50;;;;;;;7.70;5.90;;;3.90;1.00;;;;;;4955173;28;20266;-79
2022/04/17 03:00:17;;;;;;;7.45;4.70;;;3.90;1.00;;;;;;4978186;28;20244;-81
2022/04/17 03:05:37;;;;;;;5.30;4.20;;;3.70;1.00;;;;;;4954394;28;20212;-80
2022/04/17 03:08:37;;;;;;;6.47;4.70;;;3.60;1.00;;;;;;4923640;28;20290;-77
2022/04/17 03:11:16;;;;;;;5.82;5.22;;;3.60;1.00;;;;;;4947716;28;20266;-77
2022/04/17 03:13:48;;;;;;;8.95;6.03;;;3.50;1.00;;;;;;4974322;28;20236;-78
2022/04/17 03:16:16;;;;;;;8.85;6.13;;;3.50;1.00;;;;;;4964814;28;20430;-77
2022/04/17 03:18:47;;;;;;;7.82;5.85;;;3.50;1.00;;;;;;4955577;28;20226;-77
2022/04/17 03:21:18;;;;;;;7.30;5.95;;;3.50;1.00;;;;;;4975367;28;20235;-82
2022/04/17 03:23:48;;;;;;;5.47;4.88;;;3.50;1.00;;;;;;4985692;23;20298;-76
2022/04/17 03:26:17;;;;;;;5.95;4.93;;;3.50;1.00;;;;;;4975161;28;21099;-75
2022/04/17 03:28:47;;;;;;;7.18;5.65;;;3.40;1.00;;;;;;4978262;28;20448;-78
2022/04/17 03:31:17;;;;;;;6.93;4.70;;;3.40;1.00;;;;;;4992474;28;20224;-76
2022/04/17 03:33:45;;;;;;;6.70;4.90;;;3.40;1.00;;;;;;5001754;23;20254;-78
2022/04/17 03:36:17;;;;;;;7.15;4.10;;;3.40;1.00;;;;;;4984248;28;20258;-77
2022/04/17 03:38:46;;;;;;;5.43;4.93;;;3.40;1.00;;;;;;4961389;28;20238;-77
2022/04/17 03:41:17;;;;;;;6.85;4.22;;;3.50;1.00;;;;;;4994494;28;20239;-79
2022/04/17 03:43:47;;;;;;;5.50;4.50;;;3.50;1.00;;;;;;4956167;28;20239;-76
2022/04/17 03:46:17;;;;;;;4.93;4.45;;;3.50;1.00;;;;;;4960050;28;20318;-78
2022/04/17 03:48:49;;;;;;;5.25;4.20;;;3.50;1.00;;;;;;4969412;28;20251;-78
2022/04/17 03:54:05;;;;;;;16.85;10.27;;;3.40;1.00;;;;;;4971480;23;20239;-78
2022/04/17 03:56:36;;;;;;;6.07;5.47;;;3.30;1.00;;;;;;4983984;28;20244;-77
2022/04/17 03:59:08;;;;;;;6.88;5.15;;;3.20;1.00;;;;;;4985199;28;20226;-77
2022/04/17 04:01:49;;;;;;;;;;;;;;;;;;;;;
2022/04/17 04:04:16;;;;;;;7.00;4.75;;;3.10;1.00;;;;;;4959971;28;50937;-79
2022/04/17 04:07:00;;;;;;;;;;;;;;;;;;;;;
2022/04/17 04:09:38;;;;;;;7.20;5.18;;;3.10;1.00;;;;;;4958115;28;49682;-80
2022/04/17 04:12:28;;;;;;;11.10;6.28;;;3.10;1.00;;;;;;4940715;28;20239;-79
2022/04/17 04:14:55;;;;;;;8.15;5.72;;;3.20;1.00;;;;;;4947556;28;20243;-80
2022/04/17 04:17:37;;;;;;;7.15;4.65;;;3.20;1.00;;;;;;4971743;28;20283;-80
2022/04/17 04:20:26;;;;;;;5.13;4.50;;;3.20;1.00;;;;;;4947171;28;20254;-79
2022/04/17 04:22:58;;;;;;;4.38;3.97;;;3.20;1.00;;;;;;4970545;28;20236;-80
2022/04/17 04:25:28;;;;;;;6.68;4.65;;;3.30;1.00;;;;;;4963914;28;20227;-79
2022/04/17 04:33:48;;;;;;;5.07;4.50;;;3.40;1.00;;;;;;4966654;28;20313;-80
2022/04/17 04:36:16;;;;;;;5.72;4.35;;;3.40;1.00;;;;;;4974788;28;20258;-78
2022/04/17 04:38:48;;;;;;;6.03;4.60;;;3.40;1.00;;;;;;4964557;28;20272;-80
2022/04/17 04:41:47;;;;;;;7.28;5.22;;;3.50;1.00;;;;;;4972654;28;20228;-78
2022/04/17 04:44:15;;;;;;;6.05;4.57;;;3.60;1.00;;;;;;4975093;28;20246;-80
2022/04/17 04:46:58;;;;;;;9.70;5.03;;;3.60;1.00;;;;;;4966487;28;20243;-79
2022/04/17 04:49:36;;;;;;;6.50;5.40;;;3.60;1.00;;;;;;4975412;28;20227;-77
2022/04/17 04:52:09;;;;;;;11.13;7.75;;;3.60;1.00;;;;;;4934960;28;20236;-80
2022/04/17 04:54:40;;;;;;;8.05;6.65;;;3.60;1.00;;;;;;4977885;23;20254;-77
2022/04/17 04:57:08;;;;;;;17.05;11.88;;;3.70;1.00;;;;;;4973409;28;20785;-79
2022/04/17 04:59:39;;;;;;;13.23;10.50;;;3.70;1.00;;;;;;5018730;28;20250;-79
2022/04/17 05:02:16;;;;;;;15.73;13.00;;;3.70;1.00;;;;;;4980447;28;20446;-78
2022/04/17 05:04:49;;;;;;;15.35;11.88;;;3.80;1.00;;;;;;4971330;28;20258;-79
2022/04/17 05:07:27;;;;;;;9.63;8.10;;;3.80;1.00;;;;;;5002369;28;20238;-77
2022/04/17 05:10:00;;;;;;;8.05;5.65;;;3.90;1.00;;;;;;4958309;28;20243;-77
2022/04/17 05:12:28;;;;;;;9.70;7.50;;;4.00;1.00;;;;;;4970957;28;20298;-78
2022/04/17 05:17:30;;;;;;;9.63;7.65;;;4.20;1.00;;;;;;4981224;28;20255;-79
2022/04/17 05:19:57;;;;;;;13.30;7.95;;;4.30;1.00;;;;;;4979576;28;20255;-76
2022/04/17 05:22:31;;;;;;;8.98;6.85;;;4.40;1.00;;;;;;4962742;28;20483;-78
2022/04/17 05:25:29;;;;;;;;;;;;;;;;;;;;;
2022/04/17 05:27:59;;;;;;;11.45;5.85;;;4.70;1.00;;;;;;4915811;28;41074;-78
2022/04/17 05:30:27;;;;;;;11.35;5.60;;;4.80;1.00;;;;;;4969939;28;20236;-78
2022/04/17 05:33:08;;;;;;;6.43;5.70;;;4.90;1.00;;;;;;4972597;28;20236;-79
2022/04/17 05:35:38;;;;;;;7.45;5.97;;;5.00;1.00;;;;;;5002241;23;20267;-77
2022/04/17 05:38:06;;;;;;;8.02;5.47;;;5.20;1.00;;;;;;4996363;28;20235;-81
2022/04/17 05:40:49;;;;;;;7.40;5.78;;;5.30;1.00;;;;;;5004038;28;20239;-77
2022/04/17 05:43:18;;;;;;;8.73;6.10;;;5.40;1.00;;;;;;4985816;28;20266;-78
2022/04/17 05:45:49;;;;;;;9.82;8.05;;;5.60;1.00;;;;;;4982416;28;20220;-78
2022/04/17 05:48:20;;;;;;;7.07;6.05;;;5.70;1.00;;;;;;4992693;28;20228;-79
2022/04/17 05:50:47;;;;;;;7.85;6.30;;;5.80;1.00;;;;;;4980940;28;20248;-78
2022/04/17 05:53:20;;;;;;;10.68;6.20;;;6.00;1.00;;;;;;4988915;28;20240;-79
2022/04/17 05:55:48;;;;;;;8.43;6.65;;;6.10;1.00;;;;;;4991207;28;20259;-78
2022/04/17 05:58:26;;;;;;;6.82;6.13;;;6.20;1.00;;;;;;4986980;28;20220;-79
2022/04/17 06:00:58;;;;;;;7.80;7.00;;;6.30;1.00;;;;;;4990652;28;20283;-78
2022/04/17 06:03:29;;;;;;;7.88;6.72;;;6.50;1.00;;;;;;4982064;28;20231;-78
2022/04/17 06:06:00;;;;;;;7.38;6.68;;;6.70;1.00;;;;;;4989418;28;20228;-77
2022/04/17 06:08:29;;;;;;;6.95;6.25;;;6.80;1.00;;;;;;4992764;28;20254;-79
2022/04/17 06:10:59;;;;;;;10.32;5.85;;;7.00;1.00;;;;;;4979252;28;20239;-77
2022/04/17 06:13:27;;;;;;;6.55;5.78;;;7.10;1.00;;;;;;4995991;23;20240;-79
2022/04/17 06:15:57;;;;;;;7.68;5.57;;;7.20;1.00;;;;;;4954998;28;20239;-78
2022/04/17 06:18:28;;;;;;;6.85;5.38;;;7.30;1.00;;;;;;4954381;28;20293;-76
2022/04/17 06:20:55;;;;;;;6.13;5.53;;;7.40;1.00;;;;;;4951951;28;20249;-81
2022/04/17 06:23:27;;;;;;;6.80;5.75;;;7.60;1.00;;;;;;4953162;28;21262;-79
2022/04/17 06:25:54;;;;;;;8.25;5.40;;;7.70;1.00;;;;;;4949396;28;20238;-81
2022/04/17 06:28:28;;;;;;;7.53;6.50;;;7.90;1.00;;;;;;4960157;28;20237;-78
2022/04/17 06:30:59;;;;;;;6.65;5.05;;;8.10;1.00;;;;;;4959921;28;20221;-77
2022/04/17 06:33:28;;;;;;;6.82;4.40;;;8.30;1.00;;;;;;4970661;23;20237;-78
2022/04/17 06:35:57;;;;;;;6.93;5.70;;;8.50;1.00;;;;;;4953123;28;20246;-76
2022/04/17 06:38:28;;;;;;;5.00;4.30;;;8.60;1.00;;;;;;4949820;28;20546;-76
2022/04/17 06:41:06;;;;;;;5.70;3.70;;;8.80;1.00;;;;;;4952617;28;20333;-80
2022/04/17 06:43:39;;;;;;;5.38;3.65;;;8.90;1.00;;;;;;4970138;23;20258;-80
2022/04/17 06:46:09;;;;;;;4.63;3.25;;;9.10;1.00;;;;;;5004370;28;20312;-80
2022/04/17 06:48:50;;;;;;;5.27;3.60;;;9.20;1.00;;;;;;5006875;28;20223;-80
2022/04/17 06:54:19;;;;;;;3.50;2.78;;;9.40;1.00;;;;;;4981234;28;20492;-79
2022/04/17 06:56:50;;;;;;;5.45;3.05;;;9.60;1.00;;;;;;4981696;28;20223;-79
2022/04/17 06:59:17;;;;;;;6.03;3.00;;;9.80;1.00;;;;;;4988605;28;20239;-79
2022/04/17 07:01:48;;;;;;;6.00;3.20;;;9.90;1.00;;;;;;4985315;28;20407;-77
2022/04/17 07:04:19;;;;;;;7.20;2.90;;;9.90;1.00;;;;;;4981659;28;20531;-80
2022/04/17 07:06:55;;;;;;;4.25;3.00;;;10.10;1.00;;;;;;4987654;28;20502;-80
2022/04/17 07:09:30;;;;;;;5.00;2.73;;;10.20;1.00;;;;;;4993424;28;20232;-80
2022/04/17 07:11:57;;;;;;;4.60;2.40;;;10.30;1.00;;;;;;4992174;28;20471;-80
2022/04/17 07:14:30;;;;;;;4.30;2.53;;;10.40;1.00;;;;;;4996320;28;20486;-79
2022/04/17 07:17:00;;;;;;;5.07;2.90;;;10.50;1.00;;;;;;4971176;28;20424;-79
2022/04/17 07:19:38;;;;;;;6.27;2.77;;;10.60;1.00;;;;;;4970594;28;20435;-78
2022/04/17 07:22:08;;;;;;;7.10;3.13;;;10.70;1.00;;;;;;4976730;28;20446;-79
2022/04/17 07:24:39;;;;;;;4.60;2.83;;;10.70;1.00;;;;;;4984654;28;20860;-80
2022/04/17 07:27:09;;;;;;;5.80;2.97;;;10.90;1.00;;;;;;4980982;28;20513;-78
2022/04/17 07:29:37;;;;;;;6.07;2.83;;;11.00;1.00;;;;;;4983115;28;21269;-82
2022/04/17 07:32:09;;;;;;;4.83;3.20;;;11.10;1.00;;;;;;4961131;28;20435;-79
2022/04/17 07:34:37;;;;;;;4.13;2.90;;;11.10;1.00;;;;;;4958984;28;20454;-79
2022/04/17 07:37:05;;;;;;;4.60;3.10;;;11.10;1.00;;;;;;4963499;28;20476;-80
2022/04/17 07:39:37;;;;;;;7.60;3.80;;;11.20;1.00;;;;;;4963889;28;20448;-81
2022/04/17 07:42:07;;;;;;;4.23;2.90;;;11.30;1.00;;;;;;4987242;28;20528;-80
2022/04/17 07:44:40;;;;;;;5.60;3.47;;;11.50;1.00;;;;;;4979783;28;20439;-81
2022/04/17 07:47:09;;;;;;;4.80;3.27;;;11.70;1.00;;;;;;4972380;28;21472;-80
2022/04/17 07:49:40;;;;;;;6.33;3.40;;;12.00;1.00;;;;;;4961049;28;20455;-81
2022/04/17 07:52:10;;;;;;;5.40;2.97;;;12.20;1.00;;;;;;4928214;28;20485;-83
2022/04/17 07:54:37;;;;;;;5.13;2.80;;;12.40;1.00;;;;;;4967599;28;20484;-82
2022/04/17 07:57:13;;;;;;;5.97;2.90;;;12.50;1.00;;;;;;4961183;28;20437;-82
2022/04/17 07:59:50;;;;;;;3.97;2.70;;;12.50;1.00;;;;;;4971933;28;20449;-83
2022/04/17 08:05:29;;;;;;;4.13;2.90;;;12.80;1.00;;;;;;5070857;28;20504;-80
2022/04/17 08:08:00;;;;;;;4.50;2.90;;;12.90;1.00;;;;;;5053210;28;21789;-80
2022/04/17 08:10:30;;;;;;;4.70;3.10;;;13.00;1.00;;;;;;5070342;28;20431;-81
2022/04/17 08:13:00;;;;;;;9.33;7.70;;;13.10;1.00;;;;;;5065791;28;20417;-82
2022/04/17 08:15:30;;;;;;;5.33;3.27;;;13.30;1.00;;;;;;5078685;28;21303;-84
2022/04/17 08:17:58;;;;;;;4.23;2.63;;;13.40;1.00;;;;;;5077094;28;21290;-81
2022/04/17 08:20:48;;;;;;;4.37;3.07;;;13.50;1.00;;;;;;5079615;28;20415;-82
2022/04/17 08:23:19;;;;;;;4.93;3.20;;;13.60;1.00;;;;;;5077748;28;20431;-82
2022/04/17 08:25:55;;;;;;;6.40;3.20;;;13.90;1.00;;;;;;5068444;28;20589;-83
2022/04/17 08:28:29;;;;;;;4.90;3.10;;;14.00;1.00;;;;;;5074424;28;20772;-83
2022/04/17 08:31:03;;;;;;;4.53;3.60;;;14.10;1.00;;;;;;5069021;28;20523;-79
2022/04/17 08:33:30;;;;;;;5.23;3.53;;;14.20;1.00;;;;;;5070927;27;20430;-81
2022/04/17 08:35:59;;;;;;;6.80;3.63;;;14.20;1.00;;;;;;5058438;28;20480;-79
2022/04/17 08:38:26;;;;;;;6.57;4.40;;;14.30;1.00;;;;;;5069423;28;20510;-80
2022/04/17 08:40:57;;;;;;;4.57;3.57;;;14.40;1.00;;;;;;5065946;28;20536;-79
2022/04/17 08:43:26;;;;;;;5.90;3.33;;;14.50;1.00;;;;;;5068978;28;20469;-79
2022/04/17 08:45:54;;;;;;;5.10;3.47;;;14.70;1.00;;;;;;5067058;28;20474;-79
2022/04/17 08:48:22;;;;;;;5.70;3.17;;;14.80;1.00;;;;;;5077655;28;20442;-79
2022/04/17 08:50:50;;;;;;;5.10;3.47;;;14.80;1.00;;;;;;5076910;28;20492;-80
2022/04/17 08:53:19;;;;;;;4.90;3.50;;;14.70;1.00;;;;;;5077528;28;20510;-81
2022/04/17 08:55:47;;;;;;;4.90;2.97;;;14.90;1.00;;;;;;5073295;28;20638;-78
2022/04/17 08:58:14;;;;;;;4.73;3.30;;;15.00;1.00;;;;;;5079763;28;20455;-79
2022/04/17 09:00:41;;;;;;;4.67;3.50;;;15.10;1.00;;;;;;5072534;28;22663;-79
2022/04/17 09:03:12;;;;;;;5.90;3.60;;;14.90;1.00;;;;;;5074486;28;21566;-78
2022/04/17 09:05:39;;;;;;;4.03;2.93;;;14.90;1.00;;;;;;5077045;28;20466;-79
2022/04/17 09:08:14;;;;;;;5.10;3.57;;;14.90;1.00;;;;;;5075889;28;20464;-78
2022/04/17 09:10:58;;;;;;;3.40;2.87;;;14.90;1.00;;;;;;5067946;28;21009;-79
2022/04/17 09:13:33;;;;;;;4.93;2.90;;;15.10;1.00;;;;;;5063684;28;20553;-80
2022/04/17 09:16:01;;;;;;;4.70;2.90;;;15.20;1.00;;;;;;5059136;28;20507;-82
2022/04/17 09:18:30;;;;;;;4.00;2.63;;;15.30;1.00;;;;;;5061539;28;20641;-80
2022/04/17 09:20:57;;;;;;;4.00;2.70;;;15.50;1.00;;;;;;5052753;28;20942;-79
2022/04/17 09:23:35;;;;;;;5.87;3.27;;;15.70;1.00;;;;;;5063848;28;20438;-80
2022/04/17 09:26:04;;;;;;;4.13;2.87;;;16.10;1.00;;;;;;5062136;28;21453;-80
2022/04/17 09:28:32;;;;;;;6.10;3.43;;;16.60;1.00;;;;;;5060108;28;20457;-79
2022/04/17 09:31:01;;;;;;;4.43;2.90;;;17.00;1.00;;;;;;5055522;28;22752;-78
2022/04/17 09:33:37;;;;;;;5.30;3.60;;;17.80;1.00;;;;;;5058796;28;20595;-79
2022/04/17 09:36:04;;;;;;;4.50;3.13;;;19.90;1.00;;;;;;5040426;28;20471;-83
2022/04/17 09:38:33;;;;;;;4.00;2.53;;;21.70;1.00;;;;;;5036427;28;20440;-81
2022/04/17 09:41:13;;;;;;;4.47;3.00;;;22.90;1.00;;;;;;5038274;28;20771;-81
2022/04/17 09:43:40;;;;;;;3.97;2.70;;;23.80;1.00;;;;;;5055976;28;20470;-79
2022/04/17 09:46:09;;;;;;;4.90;3.57;;;24.60;1.00;;;;;;5067096;28;20491;-81
2022/04/17 09:48:40;;;;;;;5.23;3.00;;;25.00;1.00;;;;;;5073997;28;20429;-78
2022/04/17 09:51:27;;;;;;;4.50;3.10;;;25.50;1.00;;;;;;5075771;28;20422;-79
2022/04/17 09:54:00;;;;;;;4.50;3.10;;;25.80;1.00;;;;;;5063398;28;20422;-80
2022/04/17 09:56:49;;;;;;;4.00;2.90;;;25.60;1.00;;;;;;5065323;28;20444;-80
2022/04/17 09:59:21;;;;;;;6.63;3.47;;;25.00;1.00;;;;;;5077060;28;20404;-79
2022/04/17 10:01:50;;;;;;;6.10;4.13;;;24.20;1.00;;;;;;5067729;28;20477;-81
2022/04/17 10:04:19;;;;;;;4.73;3.10;;;24.10;1.00;;;;;;5072783;28;20601;-79
2022/04/17 10:06:50;;;;;;;4.87;3.00;;;24.10;1.00;;;;;;5068407;28;20489;-80
2022/04/17 10:09:19;;;;;;;3.37;2.50;;;23.80;1.00;;;;;;5069485;28;20441;-80
2022/04/17 10:11:51;;;;;;;35.17;31.43;;;24.10;1.00;;;;;;5071255;28;20486;-80
2022/04/17 10:14:19;;;;;;;5.90;3.63;;;24.80;1.00;;;;;;5073354;28;20436;-79
2022/04/17 10:16:55;;;;;;;5.30;3.30;;;25.60;1.00;;;;;;5069184;28;20446;-79
2022/04/17 10:19:28;;;;;;;6.83;4.80;;;26.70;1.00;;;;;;5069201;28;20450;-82
2022/04/17 10:22:00;;;;;;;9.00;3.13;;;27.40;1.00;;;;;;5075258;28;20448;-79
2022/04/17 10:24:32;;;;;;;4.77;2.30;;;27.50;1.00;;;;;;5073768;28;20414;-80
2022/04/17 10:27:19;;;;;;;5.00;2.30;;;27.30;1.00;;;;;;5071557;28;20500;-81
2022/04/17 10:29:58;;;;;;;3.17;2.47;;;27.40;1.00;;;;;;5058698;28;20461;-80
2022/04/17 10:33:18;;;;;;;3.50;1.80;;;28.10;1.00;;;;;;5056989;28;20430;-79
2022/04/17 10:36:11;;;;;;;3.63;2.20;;;28.30;1.00;;;;;;5044822;28;20938;-79
2022/04/17 10:38:57;;;;;;;3.37;2.00;;;28.80;1.00;;;;;;5052927;28;20436;-80
2022/04/17 10:41:29;;;;;;;3.43;2.40;;;27.90;1.00;;;;;;5052133;28;20431;-80
2022/04/17 10:44:03;;;;;;;3.70;2.20;;;26.90;1.00;;;;;;5048617;28;20529;-78
2022/04/17 10:46:30;;;;;;;4.00;2.37;;;27.00;1.00;;;;;;5055717;28;21178;-80
2022/04/17 10:49:01;;;;;;;7.23;2.77;;;27.80;1.00;;;;;;5057081;28;20482;-80
2022/04/17 10:51:31;;;;;;;2.90;2.00;;;28.40;1.00;;;;;;5059024;28;20423;-79
2022/04/17 10:54:07;;;;;;;4.73;2.33;;;28.70;1.00;;;;;;5042538;28;20433;-80
2022/04/17 10:56:35;;;;;;;5.60;2.10;;;29.30;1.00;;;;;;5056022;28;20436;-79
2022/04/17 10:59:19;;;;;;;4.33;2.33;;;30.20;1.00;;;;;;5048579;28;21525;-79
2022/04/17 11:02:29;;;;;;;3.57;2.40;;;30.60;1.00;;;;;;5053094;28;20590;-81
2022/04/17 11:05:01;;;;;;;3.10;1.90;;;30.20;1.00;;;;;;5044235;28;20414;-78
2022/04/17 11:07:30;;;;;;;4.70;2.30;;;30.10;1.00;;;;;;5059660;28;20491;-80
2022/04/17 11:10:22;;;;;;;3.70;2.10;;;30.20;1.00;;;;;;5047613;28;20564;-81
2022/04/17 11:12:59;;;;;;;3.73;2.63;;;29.80;1.00;;;;;;5051345;28;20567;-81
2022/04/17 11:15:32;;;;;;;4.40;2.47;;;30.10;1.00;;;;;;5051976;28;20451;-80
2022/04/17 11:18:01;;;;;;;3.17;1.90;;;30.70;1.00;;;;;;5047596;28;21295;-81
2022/04/17 11:20:30;;;;;;;4.90;2.60;;;31.30;1.00;;;;;;5053875;28;20430;-79
2022/04/17 11:23:00;;;;;;;3.63;2.20;;;31.70;1.00;;;;;;5053660;28;20430;-79
2022/04/17 11:25:30;;;;;;;3.50;2.27;;;32.00;1.00;;;;;;5052317;28;20467;-81
2022/04/17 11:28:07;;;;;;;5.17;2.50;;;32.10;1.00;;;;;;5048615;28;20432;-81
2022/04/17 11:30:40;;;;;;;3.33;2.27;;;32.20;1.00;;;;;;5053537;28;20428;-80
2022/04/17 11:33:09;;;;;;;2.87;1.80;;;32.20;1.00;;;;;;5052272;28;20545;-80
2022/04/17 11:35:36;;;;;;;3.80;2.30;;;32.00;1.00;;;;;;5046866;28;20436;-79
2022/04/17 11:38:09;;;;;;;3.57;2.10;;;32.50;1.00;;;;;;5051165;28;20464;-79
2022/04/17 11:41:02;;;;;;;;;;;;;;;;;;;;;
2022/04/17 11:43:30;;;;;;;4.70;2.83;;;33.30;1.00;;;;;;5041087;28;50655;-81
2022/04/17 11:46:10;;;;;;;3.70;2.50;;;33.40;1.00;;;;;;5054005;28;20429;-81
2022/04/17 11:48:40;;;;;;;2.53;1.93;;;33.20;1.00;;;;;;5060596;28;20893;-81
2022/04/17 11:51:19;;;;;;;3.23;2.03;;;33.30;1.00;;;;;;5051047;28;20433;-80
2022/04/17 11:53:48;;;;;;;3.27;2.00;;;33.70;1.00;;;;;;5051699;28;20455;-80
2022/04/17 11:56:19;;;;;;;2.90;2.03;;;33.60;1.00;;;;;;5057939;28;20463;-79
2022/04/17 11:58:49;;;;;;;5.27;2.70;;;33.70;1.00;;;;;;5056015;28;20526;-81
2022/04/17 12:01:30;;;;;;;4.30;3.13;;;33.30;1.00;;;;;;5053249;28;20468;-81
2022/04/17 12:03:59;;;;;;;2.90;2.00;;;33.50;1.00;;;;;;5050230;28;20408;-80
2022/04/17 12:06:32;;;;;;;2.53;2.00;;;33.10;1.00;;;;;;5059830;28;20455;-80
2022/04/17 12:09:01;;;;;;;4.10;3.17;;;33.10;1.00;;;;;;5053912;28;20422;-80
2022/04/17 12:11:29;;;;;;;5.13;4.60;;;33.50;1.00;;;;;;5033116;28;20464;-79
2022/04/17 12:13:56;;;;;;;2.57;1.87;;;33.60;1.00;;;;;;5038473;28;20441;-81
2022/04/17 12:16:31;;;;;;;3.40;2.30;;;33.80;1.00;;;;;;5031265;28;20452;-81
2022/04/17 12:19:01;;;;;;;2.80;2.00;;;33.10;1.00;;;;;;5031521;28;20454;-80
2022/04/17 12:21:32;;;;;;;2.40;1.53;;;33.40;1.00;;;;;;5046333;28;21426;-80
2022/04/17 12:23:59;;;;;;;2.70;1.93;;;33.80;1.00;;;;;;5046103;28;20465;-80
2022/04/17 12:26:28;;;;;;;2.40;1.60;;;34.00;1.00;;;;;;5052126;28;20496;-80
2022/04/17 12:29:01;;;;;;;3.80;2.13;;;33.70;1.00;;;;;;5041788;28;20457;-81
2022/04/17 12:31:33;;;;;;;2.90;1.73;;;33.60;1.00;;;;;;5058303;28;20420;-79
2022/04/17 12:34:13;;;;;;;2.90;1.57;;;33.70;1.00;;;;;;5055264;28;20433;-79
2022/04/17 12:36:49;;;;;;;2.50;1.70;;;33.90;1.00;;;;;;5057883;28;20516;-80
2022/04/17 12:39:32;;;;;;;3.33;2.50;;;33.80;1.00;;;;;;5056049;28;20404;-80
2022/04/17 12:41:59;;;;;;;6.00;5.50;;;33.30;1.00;;;;;;5058451;28;20460;-80
2022/04/17 12:44:39;;;;;;;4.90;2.10;;;32.80;1.00;;;;;;5061381;28;20420;-80
2022/04/17 12:47:19;;;;;;;4.80;2.40;;;31.80;1.00;;;;;;5050786;28;20626;-79
2022/04/17 12:49:57;;;;;;;2.77;2.10;;;30.60;1.00;;;;;;5055590;28;20456;-81
2022/04/17 12:52:29;;;;;;;4.60;2.70;;;30.00;1.00;;;;;;5057810;28;20497;-80
2022/04/17 12:55:20;;;;;;;3.37;2.40;;;29.40;1.00;;;;;;5050486;28;20458;-80
2022/04/17 12:58:01;;;;;;;4.50;2.10;;;28.90;1.00;;;;;;5058335;28;20443;-80
2022/04/17 13:00:30;;;;;;;3.87;2.40;;;28.60;1.00;;;;;;5054427;28;20442;-80
2022/04/17 13:03:12;;;;;;;3.30;2.43;;;28.00;1.00;;;;;;5056206;28;20508;-80
2022/04/17 13:05:42;;;;;;;3.60;2.40;;;28.30;1.00;;;;;;5054976;28;20434;-80
2022/04/17 13:08:11;;;;;;;4.80;3.47;;;29.40;1.00;;;;;;5054703;28;20441;-80
2022/04/17 13:10:52;;;;;;;3.53;2.10;;;30.80;1.00;;;;;;5057956;28;20443;-80
2022/04/17 13:13:35;;;;;;;3.53;2.23;;;32.10;1.00;;;;;;5059587;28;20478;-80
2022/04/17 13:16:09;;;;;;;4.07;2.00;;;33.30;1.00;;;;;;5053389;28;20468;-81
2022/04/17 13:18:41;;;;;;;4.57;2.30;;;33.30;1.00;;;;;;5054840;28;20441;-80
2022/04/17 13:21:09;;;;;;;3.27;2.27;;;32.40;1.00;;;;;;5052058;28;20415;-80
2022/04/17 13:23:40;;;;;;;4.10;2.20;;;31.90;1.00;;;;;;5062179;28;20423;-81
2022/04/17 13:26:12;;;;;;;3.10;2.40;;;32.20;1.00;;;;;;5050508;28;20483;-80
2022/04/17 13:28:39;;;;;;;5.40;2.73;;;32.30;1.00;;;;;;5054960;28;20421;-80
2022/04/17 13:31:10;;;;;;;2.63;2.20;;;32.80;1.00;;;;;;5057001;28;20429;-79
2022/04/17 13:33:42;;;;;;;2.83;2.10;;;33.30;1.00;;;;;;5055614;28;20439;-80
2022/04/17 13:36:10;;;;;;;3.70;2.97;;;33.30;1.00;;;;;;5051293;28;20436;-81
2022/04/17 13:38:39;;;;;;;4.03;2.50;;;33.90;1.00;;;;;;5056935;28;20408;-80
2022/04/17 13:41:10;;;;;;;3.30;2.27;;;34.80;1.00;;;;;;5054578;28;21926;-80
2022/04/17 13:43:39;;;;;;;2.60;1.90;;;35.10;1.00;;;;;;5055580;28;20530;-79
2022/04/17 13:46:05;;;;;;;3.43;2.50;;;35.40;1.00;;;;;;5046482;28;20468;-79
2022/04/17 13:48:32;;;;;;;2.93;2.47;;;34.70;1.00;;;;;;5047512;28;20571;-76
2022/04/17 13:51:06;;;;;;;5.47;2.37;;;34.00;1.00;;;;;;5042841;28;20433;-80
2022/04/17 13:53:33;;;;;;;3.47;2.80;;;33.80;1.00;;;;;;5038447;28;20464;-79
2022/04/17 13:56:00;;;;;;;3.40;2.47;;;33.70;1.00;;;;;;5041843;28;21284;-80
2022/04/17 13:58:29;;;;;;;3.00;2.60;;;34.00;1.00;;;;;;5040069;28;20685;-79